Snake Valley, Nevada Weather observations

Data are for 10 minute period ending at time listed.
 Day   Time   Solar   Ave.   Ave.  Ave.  Vector  Max.   Baro.   Total    
  of    of     Rad.   Air    Rel.  Wind   Wind   Wind  Press.  Precip.   
Year   Day            Temp.  Hum.  Speed  Dir.   Gust                    
2016   (PST)  Kw/m2    F      %     mph   deg.    mph    mb.     in.     
-------------------------------------------------------------------------
 206    0:00   0.00   55.4    48    2.3   282     4.8   843.5    0.00 
 206    0:10   0.00   58.1    37    3.4   263     7.3   843.5    0.00 
 206    0:20   0.00   58.2    34    1.9    27     7.2   843.4    0.00 
 206    0:30   0.00   56.6    43    2.3   244     6.6   843.4    0.00 
 206    0:40   0.00   53.8    54    5.0   272     7.2   843.6    0.00 
 206    0:50   0.00   53.0    52    3.9   285     5.3   843.5    0.00 
 206    1:00   0.00   52.1    58    3.6   291     4.7   843.5    0.00 
 206    1:10   0.00   51.7    55    5.6   283     7.1   843.6    0.00 
 206    1:20   0.00   54.1    40    4.7   309     7.2   843.6    0.00 
 206    1:30   0.00   58.0    29    6.2   316     7.5   843.7    0.00 
 206    1:40   0.00   58.5    30    5.7   312     7.5   843.7    0.00 
 206    1:50   0.00   58.5    32    4.9   298     8.5   843.9    0.00 
 206    2:00   0.00   58.9    30    5.1   310     7.7   843.9    0.00 
 206    2:10   0.00   59.2    31    5.3   314     6.7   843.9    0.00 
 206    2:20   0.00   59.0    29    6.2   317     8.0   844.0    0.00 
 206    2:30   0.00   55.0    44    4.8   288     6.3   844.0    0.00 
 206    2:40   0.00   51.7    51    5.3   282     6.6   844.0    0.00 
 206    2:50   0.00   50.9    52    4.9   278     6.9   844.0    0.00 
 206    3:00   0.00   51.0    53    3.9   270     6.9   844.1    0.00 
 206    3:10   0.00   50.3    59    3.9   268     6.0   844.1    0.00 
 206    3:20   0.00   51.8    53    2.8   282     4.6   844.2    0.00 
 206    3:30   0.00   56.0    41    1.9   289     4.2   844.2    0.00 
 206    3:40   0.00   59.6    35    1.7   320     4.7   844.2    0.00 
 206    3:50   0.00   57.1    46    1.7   241     3.2   844.3    0.00 
 206    4:00   0.00   53.4    51    3.7   227     4.7   844.5    0.00 
 206    4:10   0.00   51.2    58    3.2   234     4.5   844.6    0.00 
 206    4:20   0.00   51.8    52    2.0   219     3.6   844.6    0.00 
 206    4:30   0.00   53.7    48    1.9   206     2.5   844.6    0.00 
 206    4:40   0.01   53.1    54    2.4   206     3.2   844.7    0.00 
 206    4:50   0.02   51.4    61    2.8   224     3.4   844.8    0.00 
 206    5:00   0.04   50.8    63    2.0   232     2.6   844.9    0.00 
 206    5:10   0.06   51.5    60    2.8   232     3.9   844.9    0.00 
 206    5:20   0.08   53.2    61    1.4   211     3.1   845.0    0.00 
 206    5:30   0.11   56.5    58    1.7   264     4.5   845.1    0.00 
 206    5:40   0.13   58.4    53    2.8   305     4.2   845.2    0.00 
 206    5:50   0.16   60.9    47    2.1   299     2.9   845.2    0.00 
 206    6:00   0.19   63.1    54    1.0   248     1.7   845.3    0.00 
 206    6:10   0.22   65.1    45    0.7   223     2.1   845.4    0.00 
 206    6:20   0.26   69.0    37    1.3   162     2.0   845.4    0.00 
 206    6:30   0.29   70.4    30    1.0   139     1.8   845.4    0.00 
 206    6:40   0.32   71.0    30    1.2   158     1.8   845.4    0.00 
 206    6:50   0.36   72.0    32    1.0   147     2.0   845.4    0.00 
 206    7:00   0.39   74.0    28    1.5    52     2.9   845.3    0.00 
 206    7:10   0.43   74.8    28    1.5    36     2.3   845.2    0.00 
 206    7:20   0.46   76.5    23    1.7    41     2.9   845.2    0.00 
 206    7:30   0.49   76.9    23    2.0    51     3.3   845.2    0.00 
 206    7:40   0.52   76.5    21    2.6    76     4.5   845.2    0.00 
 206    7:50   0.56   76.9    23    2.3    60     4.2   845.3    0.00 
 206    8:00   0.59   77.2    24    2.2    34     4.0   845.3    0.00 
 206    8:10   0.62   79.1    21    1.9    45     4.0   845.3    0.00 
 206    8:20   0.65   79.7    20    2.0    49     4.4   845.3    0.00 
 206    8:30   0.68   79.5    17    2.1    54     3.9   845.4    0.00 
 206    8:40   0.70   79.0    20    4.0   357     6.1   845.4    0.00 
 206    8:50   0.73   79.5    19    2.4    69     5.4   845.3    0.00 
 206    9:00   0.76   81.2    17    1.8    45     6.3   845.3    0.00 
 206    9:10   0.79   81.1    19    3.0    50     6.0   845.3    0.00 
 206    9:20   0.81   81.1    18    3.2    15     5.6   845.3    0.00 
 206    9:30   0.83   82.1    18    3.6    68     6.2   845.3    0.00 
 206    9:40   0.85   82.6    17    3.2    33     6.0   845.3    0.00 
 206    9:50   0.87   83.2    19    3.6    50     5.3   845.3    0.00 
 206   10:00   0.89   83.8    15    1.8    63     3.7   845.2    0.00 
 206   10:10   0.91   84.5    16    2.6    38     6.7   845.1    0.00 
 206   10:20   0.93   85.9    14    1.5    38     4.5   845.1    0.00 
 206   10:30   0.94   87.0    14    1.2    47     3.1   845.0    0.00 
 206   10:40   0.95   87.5    14    2.4   183     4.4   844.9    0.00 
 206   10:50   0.96   87.5    14    2.1   239     4.9   844.8    0.00 
 206   11:00   0.97   87.0    12    2.0   339     5.2   844.7    0.00 
 206   11:10   0.98   88.2    13    2.1   178     5.1   844.6    0.00 
 206   11:20   0.99   88.8    13    2.0   106     4.5   844.5    0.00 
 206   11:30   1.00   88.7    11    1.7   256     4.7   844.4    0.00 
 206   11:40   1.00   90.1    12    2.1   169     3.9   844.3    0.00 
 206   11:50   1.00   89.7    11    2.4   154     6.1   844.1    0.00 
 206   12:00   1.00   90.2    11    2.2    19     6.2   844.0    0.00 
 206   12:10   1.00   90.0    11    2.2   259     4.4   843.9    0.00 
 206   12:20   0.99   91.7    11    1.6    97     5.0   843.8    0.00 
 206   12:30   0.99   91.8    11    1.9   185     4.3   843.7    0.00 
 206   12:40   0.98   90.8    14    4.3    61     8.1   843.5    0.00 
 206   12:50   0.97   91.4    12    2.8    70     7.2   843.4    0.00 
 206   13:00   0.95   93.6    10    1.1    45     3.0   843.2    0.00 
 206   13:10   0.94   93.6    10    2.1    23     5.8   843.1    0.00 
 206   13:20   0.93   93.5    11    2.2   138     5.9   842.9    0.00 
 206   13:30   0.92   93.7    13    2.9    57    10.2   842.7    0.00 
 206   13:40   0.90   93.1    12    3.5     9     7.7   842.5    0.00 
 206   13:50   0.89   93.8    12    3.5     3     8.8   842.2    0.00 
 206   14:00   0.80   92.9    15    4.8    52     8.8   842.1    0.00 
 206   14:10   0.78   93.0    14    4.9    72     7.6   841.9    0.00 
 206   14:20   0.70   94.0    12    3.4    76     6.6   841.8    0.00 
 206   14:30   0.40   94.2    11    2.9    90     7.1   841.7    0.00 
 206   14:40   0.54   95.1    10    2.5   100     6.4   841.6    0.00 
 206   14:50   0.47   93.9    13    2.0    88     5.8   841.4    0.00 
 206   15:00   0.74   94.1    15    3.2    73     6.5   841.2    0.00 
 206   15:10   0.71   95.8    13    3.3    48     9.4   841.1    0.00 
 206   15:20   0.69   94.8    20    3.4    65     5.4   841.0    0.00 
 206   15:30   0.54   95.1    11    3.3   162     7.5   840.9    0.00 
 206   15:40   0.64   96.8    12    3.4   270     5.5   840.8    0.00 
 206   15:50   0.59   96.7    14    1.9    60     3.7   840.8    0.00 
 206   16:00   0.53   97.4    15    2.2   325     3.9   840.7    0.00 
 206   16:10   0.32   95.9    12    1.7   323     6.6   840.6    0.00 
 206   16:20   0.51   96.2    17    2.7   160     4.1   840.6    0.00 
 206   16:30   0.30   96.1     9    1.1   102     3.5   840.6    0.00 
 206   16:40   0.32   96.8    10    1.8   357     4.0   840.6    0.00 
 206   16:50   0.37   97.7    11    2.3   304     6.2   840.6    0.00 
 206   17:00   0.39   95.5    14    3.3    36     6.8   840.5    0.00 
 206   17:10   0.34   89.9    20    7.9    36    11.6   840.4    0.00 
 206   17:20   0.14   86.3    20    9.5    26    14.7   840.5    0.00 
 206   17:30   0.15   84.5    20    9.4    22    14.8   840.7    0.00 
 206   17:40   0.25   86.8    16    9.2     4    14.4   840.8    0.00 
 206   17:50   0.14   86.4    17    9.0    19    15.5   840.8    0.00 
 206   18:00   0.10   84.6    18    9.1    28    13.7   840.9    0.00 
 206   18:10   0.15   84.5    19    7.8    26    13.3   840.9    0.00 
 206   18:20   0.12   85.1    17    9.0    30    13.6   841.0    0.00 
 206   18:30   0.07   84.8    16   10.6    24    16.7   841.0    0.00 
 206   18:40   0.04   84.6    15   11.8    17    19.6   841.0    0.00 
 206   18:50   0.02   83.8    14   11.1    19    17.3   841.0    0.00 
 206   19:00   0.01   82.8    15    9.6    17    13.7   841.0    0.00 
 206   19:10   0.00   81.4    16    8.9    21    14.2   841.0    0.00 
 206   19:20   0.00   79.4    19    6.4    18     9.5   841.1    0.00 
 206   19:30   0.00   77.2    23    3.6   292     6.2   841.2    0.00 
 206   19:40   0.00   76.0    20    2.7   232     5.6   841.2    0.00 
 206   19:50   0.00   79.4    16    2.6   246     6.6   841.3    0.00 
 206   20:00   0.00   81.8    14    5.1   265    13.4   841.4    0.00 
 206   20:10   0.00   83.6    12    6.6   331    14.2   841.6    0.00 
 206   20:20   0.00   83.7    12    5.1     9    11.1   841.8    0.00 
 206   20:30   0.00   80.2    16    2.8   220     5.9   841.9    0.00 
 206   20:40   0.00   78.1    19    1.4   138     3.1   842.0    0.00 
 206   20:50   0.00   75.0    27    2.9   194     5.8   841.8    0.00 
 206   21:00   0.00   65.9    41    3.4   248     5.0   841.9    0.00 
 206   21:10   0.00   65.7    38    2.1   244     3.8   842.0    0.00 
 206   21:20   0.00   65.6    36    3.4   237     4.4   841.9    0.00 
 206   21:30   0.00   64.3    42    4.1   232     5.6   841.9    0.00 
 206   21:40   0.00   64.3    39    3.2   227     5.0   842.0    0.00 
 206   21:50   0.00   64.6    37    3.9   222     5.3   842.1    0.00 
 206   22:00   0.00   62.8    45    3.3   230     4.2   842.2    0.00 
 206   22:10   0.00   62.7    42    4.0   275     5.6   842.3    0.00 
 206   22:20   0.00   63.1    42    3.2   278     5.4   842.4    0.00 
 206   22:30   0.00   66.2    33    2.8   271     3.9   842.4    0.00 
 206   22:40   0.00   63.3    42    3.5   216     4.5   842.5    0.00 
 206   22:50   0.00   60.6    44    3.5   239     5.7   842.6    0.00 
 206   23:00   0.00   60.7    44    3.1   231     4.3   842.7    0.00 
 206   23:10   0.00   59.0    50    3.8   252     5.0   842.7    0.00 
 206   23:20   0.00   58.8    52    4.1   262     5.1   842.7    0.00 
 206   23:30   0.00   57.4    63    3.9   270     4.9   842.8    0.00 
 206   23:40   0.00   56.5    63    3.6   272     4.7   842.9    0.00 

Return to Snake Valley graphs page.


Western Regional Climate Center,wrcc@dri.edu